PWSweather.com
Personal Weather Stations
Station Observations
WESTON01
WestonSuperMareGB BS22 8RT

WestonSuperMareGB BS22 8RT

Lat: 51.351508, Lon: -2.933373

Elevation: 15

Station Type: Fine Offset WH1080

http://www.westonweather.co.uk

High Low Average
Temperature 55.1°F12.8°C 40.5°F4.7°C 49.5°F9.7°C
Dew Point 49.7°F9.8°C 37.2°F2.9°C 44.0°F6.7°C
Winds 15.5 mph 24.9 kmh 0.4 mph 0.6 kmh 8.0 mph S12.9 kmh S
Wind Gusts 25.9 mph41.7 kmh 2.7 mph4.3 kmh 13.0 mph20.9 kmh
Humidity 90% 73% 81%
Pressure 29.82 in1009.8 mb 29.70 in1005.8 mb -
Precipitation 0.13 in3.3 mm - -
Hour Temp Dew Point Humidity Winds Wind Gusts Pressure Precip Precip Rate Daily Precip Total
12:00 AM 41.1°F5.1°C 37.8°F3.2°C 88% 5.0 mph SW8.0 kmh SW 6.5 mph10.5 kmh 29.73 in1006.8 mb 0.00 in0.0 mm 0.00 in0.0 mm 0.00 in0.0 mm
12:05 AM 41.1°F5.1°C 37.8°F3.2°C 88% 4.5 mph SSW7.2 kmh SSW 8.0 mph12.9 kmh 29.73 in1006.8 mb 0.00 in0.0 mm 0.00 in0.0 mm 0.00 in0.0 mm
12:10 AM 41.1°F5.1°C 37.8°F3.2°C 88% 4.6 mph SSW7.4 kmh SSW 8.0 mph12.9 kmh 29.73 in1006.8 mb 0.00 in0.0 mm 0.00 in0.0 mm 0.00 in0.0 mm
12:15 AM 41.1°F5.1°C 37.8°F3.2°C 88% 4.4 mph SSW7.1 kmh SSW 5.7 mph9.2 kmh 29.73 in1006.8 mb 0.00 in0.0 mm 0.00 in0.0 mm 0.00 in0.0 mm
12:20 AM 41.1°F5.1°C 37.8°F3.2°C 88% 2.8 mph SSW4.5 kmh SSW 5.7 mph9.2 kmh 29.73 in1006.8 mb 0.00 in0.0 mm 0.00 in0.0 mm 0.00 in0.0 mm
12:25 AM 41.1°F5.1°C 37.8°F3.2°C 88% 1.2 mph SSW1.9 kmh SSW 3.9 mph6.3 kmh 29.73 in1006.8 mb 0.00 in0.0 mm 0.00 in0.0 mm 0.00 in0.0 mm
12:30 AM 40.9°F4.9°C 37.6°F3.1°C 88% 1.3 mph SW2.1 kmh SW 3.6 mph5.8 kmh 29.73 in1006.8 mb 0.00 in0.0 mm 0.00 in0.0 mm 0.00 in0.0 mm
12:35 AM 40.9°F4.9°C 37.3°F2.9°C 87% 1.5 mph SW2.4 kmh SW 3.6 mph5.8 kmh 29.73 in1006.8 mb 0.00 in0.0 mm 0.00 in0.0 mm 0.00 in0.0 mm
12:40 AM 40.7°F4.8°C 37.2°F2.9°C 87% 1.9 mph SSW3.1 kmh SSW 3.6 mph5.8 kmh 29.73 in1006.8 mb 0.00 in0.0 mm 0.00 in0.0 mm 0.00 in0.0 mm
12:45 AM 40.7°F4.8°C 37.5°F3.1°C 88% 2.3 mph SSW3.7 kmh SSW 3.6 mph5.8 kmh 29.73 in1006.8 mb 0.00 in0.0 mm 0.00 in0.0 mm 0.00 in0.0 mm
12:50 AM 40.7°F4.8°C 37.5°F3.1°C 88% 1.4 mph SSW2.3 kmh SSW 3.3 mph5.3 kmh 29.73 in1006.8 mb 0.00 in0.0 mm 0.00 in0.0 mm 0.00 in0.0 mm
12:55 AM 40.5°F4.7°C 37.3°F2.9°C 88% 0.4 mph S0.6 kmh S 2.7 mph4.3 kmh 29.73 in1006.8 mb 0.00 in0.0 mm 0.00 in0.0 mm 0.00 in0.0 mm
01:00 AM 40.7°F4.8°C 37.5°F3.1°C 88% 2.1 mph SW3.4 kmh SW 4.5 mph7.2 kmh 29.73 in1006.8 mb 0.00 in0.0 mm 0.00 in0.0 mm 0.00 in0.0 mm
01:05 AM 40.7°F4.8°C 37.5°F3.1°C 88% 3.2 mph SW5.1 kmh SW 4.5 mph7.2 kmh 29.73 in1006.8 mb 0.00 in0.0 mm 0.00 in0.0 mm 0.00 in0.0 mm
01:10 AM 41.1°F5.1°C 37.8°F3.2°C 88% 3.0 mph WSW4.8 kmh WSW 4.5 mph7.2 kmh 29.73 in1006.8 mb 0.00 in0.0 mm 0.00 in0.0 mm 0.00 in0.0 mm
01:15 AM 41.1°F5.1°C 37.8°F3.2°C 88% 4.0 mph SW6.4 kmh SW 8.6 mph13.8 kmh 29.73 in1006.8 mb 0.00 in0.0 mm 0.00 in0.0 mm 0.00 in0.0 mm
01:20 AM 41.5°F5.3°C 38.2°F3.4°C 88% 4.8 mph SSW7.7 kmh SSW 8.6 mph13.8 kmh 29.73 in1006.8 mb 0.00 in0.0 mm 0.00 in0.0 mm 0.00 in0.0 mm
01:25 AM 42.0°F5.6°C 38.4°F3.6°C 87% 5.8 mph SSW9.3 kmh SSW 9.5 mph15.3 kmh 29.73 in1006.8 mb 0.00 in0.0 mm 0.00 in0.0 mm 0.00 in0.0 mm
01:30 AM 42.3°F5.7°C 38.8°F3.8°C 87% 6.9 mph S11.1 kmh S 9.5 mph15.3 kmh 29.73 in1006.8 mb 0.00 in0.0 mm 0.00 in0.0 mm 0.00 in0.0 mm
01:35 AM 42.9°F6.1°C 39.3°F4.1°C 87% 8.5 mph S13.7 kmh S 13.4 mph21.6 kmh 29.73 in1006.8 mb 0.00 in0.0 mm 0.00 in0.0 mm 0.00 in0.0 mm
01:40 AM 43.3°F6.3°C 39.6°F4.2°C 87% 8.1 mph S13.0 kmh S 13.4 mph21.6 kmh 29.73 in1006.8 mb 0.00 in0.0 mm 0.00 in0.0 mm 0.00 in0.0 mm
01:45 AM 43.6°F6.4°C 39.7°F4.3°C 86% 7.5 mph S12.1 kmh S 11.6 mph18.7 kmh 29.73 in1006.8 mb 0.00 in0.0 mm 0.00 in0.0 mm 0.00 in0.0 mm
01:50 AM 44.2°F6.8°C 40.2°F4.6°C 86% 8.1 mph SSW13.0 kmh SSW 11.3 mph18.2 kmh 29.73 in1006.8 mb 0.00 in0.0 mm 0.00 in0.0 mm 0.00 in0.0 mm
01:55 AM 44.7°F7.1°C 40.8°F4.9°C 86% 8.3 mph SSW13.4 kmh SSW 11.3 mph18.2 kmh 29.73 in1006.8 mb 0.00 in0.0 mm 0.00 in0.0 mm 0.00 in0.0 mm
02:00 AM 44.7°F7.1°C 40.8°F4.9°C 86% 8.6 mph SSW13.8 kmh SSW 11.6 mph18.7 kmh 29.73 in1006.8 mb 0.00 in0.0 mm 0.00 in0.0 mm 0.00 in0.0 mm
02:05 AM 45.2°F7.3°C 41.0°F5.0°C 85% 7.5 mph SSW12.1 kmh SSW 11.6 mph18.7 kmh 29.73 in1006.8 mb 0.00 in0.0 mm 0.00 in0.0 mm 0.00 in0.0 mm
02:10 AM 45.8°F7.7°C 41.5°F5.3°C 85% 6.3 mph SSW10.1 kmh SSW 8.0 mph12.9 kmh 29.73 in1006.8 mb 0.00 in0.0 mm 0.00 in0.0 mm 0.00 in0.0 mm
02:15 AM 46.0°F7.8°C 41.4°F5.2°C 84% 6.7 mph SSW10.8 kmh SSW 8.6 mph13.8 kmh 29.73 in1006.8 mb 0.00 in0.0 mm 0.00 in0.0 mm 0.00 in0.0 mm
02:20 AM 46.0°F7.8°C 41.4°F5.2°C 84% 6.6 mph S10.6 kmh S 11.6 mph18.7 kmh 29.73 in1006.8 mb 0.00 in0.0 mm 0.00 in0.0 mm 0.00 in0.0 mm
02:25 AM 45.4°F7.4°C 40.9°F4.9°C 84% 6.6 mph S10.6 kmh S 11.6 mph18.7 kmh 29.73 in1006.8 mb 0.00 in0.0 mm 0.00 in0.0 mm 0.00 in0.0 mm
02:30 AM 45.4°F7.4°C 40.9°F4.9°C 84% 7.0 mph S11.3 kmh S 9.5 mph15.3 kmh 29.73 in1006.8 mb 0.00 in0.0 mm 0.00 in0.0 mm 0.00 in0.0 mm
02:35 AM 45.2°F7.3°C 40.7°F4.8°C 84% 6.8 mph S10.9 kmh S 9.5 mph15.3 kmh 29.73 in1006.8 mb 0.00 in0.0 mm 0.00 in0.0 mm 0.00 in0.0 mm
02:40 AM 45.0°F7.2°C 40.5°F4.7°C 84% 5.8 mph S9.3 kmh S 7.7 mph12.4 kmh 29.73 in1006.8 mb 0.00 in0.0 mm 0.00 in0.0 mm 0.00 in0.0 mm
02:45 AM 45.0°F7.2°C 40.5°F4.7°C 84% 5.0 mph S8.0 kmh S 7.7 mph12.4 kmh 29.73 in1006.8 mb 0.00 in0.0 mm 0.00 in0.0 mm 0.00 in0.0 mm
02:50 AM 45.0°F7.2°C 40.5°F4.7°C 84% 5.1 mph S8.2 kmh S 9.5 mph15.3 kmh 29.73 in1006.8 mb 0.00 in0.0 mm 0.00 in0.0 mm 0.00 in0.0 mm
02:55 AM 45.2°F7.3°C 40.7°F4.8°C 84% 5.7 mph SSW9.2 kmh SSW 11.3 mph18.2 kmh 29.73 in1006.8 mb 0.00 in0.0 mm 0.00 in0.0 mm 0.00 in0.0 mm
03:00 AM 45.4°F7.4°C 40.9°F4.9°C 84% 6.7 mph S10.8 kmh S 13.7 mph22.0 kmh 29.73 in1006.8 mb 0.00 in0.0 mm 0.00 in0.0 mm 0.00 in0.0 mm
03:05 AM 45.8°F7.7°C 41.2°F5.1°C 84% 7.1 mph S11.4 kmh S 13.7 mph22.0 kmh 29.73 in1006.8 mb 0.00 in0.0 mm 0.00 in0.0 mm 0.00 in0.0 mm
03:10 AM 45.8°F7.7°C 41.2°F5.1°C 84% 7.3 mph SSW11.7 kmh SSW 11.6 mph18.7 kmh 29.73 in1006.8 mb 0.00 in0.0 mm 0.00 in0.0 mm 0.00 in0.0 mm
03:15 AM 46.3°F7.9°C 41.7°F5.4°C 84% 7.2 mph SSW11.6 kmh SSW 8.6 mph13.8 kmh 29.76 in1007.8 mb 0.00 in0.0 mm 0.00 in0.0 mm 0.00 in0.0 mm
03:20 AM 46.5°F8.1°C 41.9°F5.5°C 84% 6.6 mph S10.6 kmh S 8.6 mph13.8 kmh 29.76 in1007.8 mb 0.00 in0.0 mm 0.00 in0.0 mm 0.00 in0.0 mm
03:25 AM 46.7°F8.2°C 42.1°F5.6°C 84% 5.3 mph S8.5 kmh S 10.4 mph16.7 kmh 29.76 in1007.8 mb 0.00 in0.0 mm 0.00 in0.0 mm 0.00 in0.0 mm
03:30 AM 46.7°F8.2°C 42.4°F5.8°C 85% 5.7 mph S9.2 kmh S 10.4 mph16.7 kmh 29.76 in1007.8 mb 0.00 in0.0 mm 0.00 in0.0 mm 0.00 in0.0 mm
03:35 AM 46.5°F8.1°C 42.2°F5.7°C 85% 6.6 mph S10.6 kmh S 11.3 mph18.2 kmh 29.76 in1007.8 mb 0.00 in0.0 mm 0.00 in0.0 mm 0.00 in0.0 mm
03:40 AM 46.5°F8.1°C 42.2°F5.7°C 85% 7.4 mph S11.9 kmh S 11.3 mph18.2 kmh 29.76 in1007.8 mb 0.00 in0.0 mm 0.00 in0.0 mm 0.00 in0.0 mm
03:45 AM 46.5°F8.1°C 42.2°F5.7°C 85% 7.3 mph S11.7 kmh S 11.3 mph18.2 kmh 29.76 in1007.8 mb 0.00 in0.0 mm 0.00 in0.0 mm 0.00 in0.0 mm
03:50 AM 46.3°F7.9°C 42.0°F5.6°C 85% 5.4 mph S8.7 kmh S 9.8 mph15.8 kmh 29.76 in1007.8 mb 0.00 in0.0 mm 0.00 in0.0 mm 0.00 in0.0 mm
03:55 AM 46.5°F8.1°C 42.5°F5.8°C 86% 7.2 mph SSW11.6 kmh SSW 11.3 mph18.2 kmh 29.76 in1007.8 mb 0.00 in0.0 mm 0.00 in0.0 mm 0.00 in0.0 mm
04:00 AM 46.7°F8.2°C 42.7°F5.9°C 86% 8.8 mph SSW14.2 kmh SSW 11.3 mph18.2 kmh 29.76 in1007.8 mb 0.05 in1.3 mm 0.05 in1.3 mm 0.05 in1.3 mm
04:05 AM 46.8°F8.2°C 42.9°F6.1°C 86% 7.6 mph S12.2 kmh S 10.7 mph17.2 kmh 29.76 in1007.8 mb 0.05 in1.3 mm 0.00 in0.0 mm 0.05 in1.3 mm
04:10 AM 46.8°F8.2°C 42.9°F6.1°C 86% 7.5 mph S12.1 kmh S 11.6 mph18.7 kmh 29.76 in1007.8 mb 0.05 in1.3 mm 0.00 in0.0 mm 0.05 in1.3 mm
04:15 AM 47.4°F8.6°C 43.4°F6.3°C 86% 8.3 mph SSW13.4 kmh SSW 11.6 mph18.7 kmh 29.76 in1007.8 mb 0.05 in1.3 mm 0.00 in0.0 mm 0.05 in1.3 mm
04:20 AM 47.6°F8.7°C 43.6°F6.4°C 86% 8.2 mph SSW13.2 kmh SSW 10.4 mph16.7 kmh 29.76 in1007.8 mb 0.05 in1.3 mm 0.00 in0.0 mm 0.05 in1.3 mm
04:25 AM 47.6°F8.7°C 43.6°F6.4°C 86% 9.0 mph SSW14.5 kmh SSW 11.6 mph18.7 kmh 29.76 in1007.8 mb 0.05 in1.3 mm 0.00 in0.0 mm 0.05 in1.3 mm
04:30 AM 47.9°F8.8°C 43.6°F6.4°C 85% 9.2 mph SSW14.8 kmh SSW 11.6 mph18.7 kmh 29.76 in1007.8 mb 0.05 in1.3 mm 0.00 in0.0 mm 0.05 in1.3 mm
04:35 AM 48.1°F8.9°C 43.8°F6.6°C 85% 9.7 mph SSW15.6 kmh SSW 14.0 mph22.5 kmh 29.76 in1007.8 mb 0.05 in1.3 mm 0.00 in0.0 mm 0.05 in1.3 mm
04:40 AM 48.1°F8.9°C 43.8°F6.6°C 85% 8.3 mph SSW13.4 kmh SSW 14.0 mph22.5 kmh 29.76 in1007.8 mb 0.05 in1.3 mm 0.00 in0.0 mm 0.05 in1.3 mm
04:45 AM 48.1°F8.9°C 43.8°F6.6°C 85% 6.1 mph SSW9.8 kmh SSW 9.8 mph15.8 kmh 29.79 in1008.8 mb 0.05 in1.3 mm 0.00 in0.0 mm 0.05 in1.3 mm
04:50 AM 48.1°F8.9°C 43.8°F6.6°C 85% 6.8 mph SSW10.9 kmh SSW 9.8 mph15.8 kmh 29.79 in1008.8 mb 0.05 in1.3 mm 0.00 in0.0 mm 0.05 in1.3 mm
04:55 AM 48.1°F8.9°C 43.8°F6.6°C 85% 7.8 mph SSW12.6 kmh SSW 9.8 mph15.8 kmh 29.79 in1008.8 mb 0.05 in1.3 mm 0.00 in0.0 mm 0.05 in1.3 mm
05:00 AM 48.1°F8.9°C 43.8°F6.6°C 85% 7.9 mph S12.7 kmh S 13.7 mph22.0 kmh 29.76 in1007.8 mb 0.00 in0.0 mm 0.00 in0.0 mm 0.05 in1.3 mm
05:05 AM 48.1°F8.9°C 43.8°F6.6°C 85% 9.3 mph SSW15.0 kmh SSW 14.3 mph23.0 kmh 29.76 in1007.8 mb 0.00 in0.0 mm 0.00 in0.0 mm 0.05 in1.3 mm
05:10 AM 48.1°F8.9°C 43.8°F6.6°C 85% 10.4 mph SSW16.7 kmh SSW 14.3 mph23.0 kmh 29.76 in1007.8 mb 0.00 in0.0 mm 0.00 in0.0 mm 0.05 in1.3 mm
05:15 AM 48.1°F8.9°C 43.8°F6.6°C 85% 10.1 mph SSW16.3 kmh SSW 14.3 mph23.0 kmh 29.76 in1007.8 mb 0.00 in0.0 mm 0.00 in0.0 mm 0.05 in1.3 mm
05:20 AM 48.1°F8.9°C 43.8°F6.6°C 85% 9.4 mph S15.1 kmh S 11.6 mph18.7 kmh 29.76 in1007.8 mb 0.00 in0.0 mm 0.00 in0.0 mm 0.05 in1.3 mm
05:25 AM 48.1°F8.9°C 43.8°F6.6°C 85% 9.6 mph SSW15.4 kmh SSW 14.0 mph22.5 kmh 29.76 in1007.8 mb 0.00 in0.0 mm 0.00 in0.0 mm 0.05 in1.3 mm
05:35 AM 48.1°F8.9°C 43.8°F6.6°C 85% 9.3 mph SSW15.0 kmh SSW 13.1 mph21.1 kmh 29.76 in1007.8 mb 0.00 in0.0 mm 0.00 in0.0 mm 0.05 in1.3 mm
05:40 AM 48.1°F8.9°C 43.8°F6.6°C 85% 9.9 mph SSW15.9 kmh SSW 13.7 mph22.0 kmh 29.76 in1007.8 mb 0.00 in0.0 mm 0.00 in0.0 mm 0.05 in1.3 mm
05:45 AM 48.1°F8.9°C 44.1°F6.7°C 86% 9.7 mph SSW15.6 kmh SSW 16.4 mph26.4 kmh 29.76 in1007.8 mb 0.00 in0.0 mm 0.00 in0.0 mm 0.05 in1.3 mm
05:50 AM 48.1°F8.9°C 44.1°F6.7°C 86% 9.1 mph SSW14.6 kmh SSW 16.4 mph26.4 kmh 29.76 in1007.8 mb 0.00 in0.0 mm 0.00 in0.0 mm 0.05 in1.3 mm
05:55 AM 48.1°F8.9°C 44.1°F6.7°C 86% 8.5 mph S13.7 kmh S 14.0 mph22.5 kmh 29.76 in1007.8 mb 0.00 in0.0 mm 0.00 in0.0 mm 0.05 in1.3 mm
06:00 AM 48.1°F8.9°C 44.1°F6.7°C 86% 9.9 mph S15.9 kmh S 13.7 mph22.0 kmh 29.76 in1007.8 mb 0.00 in0.0 mm 0.00 in0.0 mm 0.05 in1.3 mm
06:05 AM 48.3°F9.1°C 44.3°F6.8°C 86% 10.1 mph S16.3 kmh S 13.7 mph22.0 kmh 29.76 in1007.8 mb 0.00 in0.0 mm 0.00 in0.0 mm 0.05 in1.3 mm
06:10 AM 48.5°F9.2°C 44.2°F6.8°C 85% 9.4 mph S15.1 kmh S 11.6 mph18.7 kmh 29.76 in1007.8 mb 0.00 in0.0 mm 0.00 in0.0 mm 0.05 in1.3 mm
06:15 AM 48.5°F9.2°C 44.2°F6.8°C 85% 8.4 mph SSW13.5 kmh SSW 13.1 mph21.1 kmh 29.76 in1007.8 mb 0.00 in0.0 mm 0.00 in0.0 mm 0.05 in1.3 mm
06:20 AM 48.5°F9.2°C 44.2°F6.8°C 85% 7.9 mph S12.7 kmh S 13.1 mph21.1 kmh 29.76 in1007.8 mb 0.00 in0.0 mm 0.00 in0.0 mm 0.05 in1.3 mm
06:25 AM 48.3°F9.1°C 44.0°F6.7°C 85% 8.3 mph SSW13.4 kmh SSW 13.1 mph21.1 kmh 29.76 in1007.8 mb 0.00 in0.0 mm 0.00 in0.0 mm 0.05 in1.3 mm
06:30 AM 48.3°F9.1°C 44.0°F6.7°C 85% 8.1 mph SSW13.0 kmh SSW 11.6 mph18.7 kmh 29.76 in1007.8 mb 0.00 in0.0 mm 0.00 in0.0 mm 0.05 in1.3 mm
06:35 AM 48.5°F9.2°C 44.2°F6.8°C 85% 9.2 mph SSW14.8 kmh SSW 11.6 mph18.7 kmh 29.76 in1007.8 mb 0.00 in0.0 mm 0.00 in0.0 mm 0.05 in1.3 mm
06:40 AM 48.5°F9.2°C 44.2°F6.8°C 85% 8.9 mph SSW14.3 kmh SSW 10.4 mph16.7 kmh 29.76 in1007.8 mb 0.00 in0.0 mm 0.00 in0.0 mm 0.05 in1.3 mm
06:45 AM 48.7°F9.3°C 44.7°F7.1°C 86% 8.1 mph S13.0 kmh S 11.3 mph18.2 kmh 29.76 in1007.8 mb 0.00 in0.0 mm 0.00 in0.0 mm 0.05 in1.3 mm
06:50 AM 48.8°F9.3°C 44.5°F6.9°C 85% 8.3 mph S13.4 kmh S 11.3 mph18.2 kmh 29.76 in1007.8 mb 0.00 in0.0 mm 0.00 in0.0 mm 0.05 in1.3 mm
06:55 AM 48.8°F9.3°C 44.5°F6.9°C 85% 9.0 mph S14.5 kmh S 11.3 mph18.2 kmh 29.76 in1007.8 mb 0.00 in0.0 mm 0.00 in0.0 mm 0.05 in1.3 mm
07:00 AM 48.7°F9.3°C 44.7°F7.1°C 86% 7.7 mph S12.4 kmh S 10.7 mph17.2 kmh 29.79 in1008.8 mb 0.00 in0.0 mm 0.00 in0.0 mm 0.05 in1.3 mm
07:05 AM 48.7°F9.3°C 44.7°F7.1°C 86% 6.3 mph S10.1 kmh S 10.1 mph16.3 kmh 29.79 in1008.8 mb 0.00 in0.0 mm 0.00 in0.0 mm 0.05 in1.3 mm
07:10 AM 48.7°F9.3°C 44.7°F7.1°C 86% 5.8 mph S9.3 kmh S 8.6 mph13.8 kmh 29.79 in1008.8 mb 0.00 in0.0 mm 0.00 in0.0 mm 0.05 in1.3 mm
07:15 AM 48.5°F9.2°C 44.5°F6.9°C 86% 6.1 mph S9.8 kmh S 8.6 mph13.8 kmh 29.79 in1008.8 mb 0.00 in0.0 mm 0.00 in0.0 mm 0.05 in1.3 mm
07:20 AM 48.5°F9.2°C 44.5°F6.9°C 86% 6.4 mph S10.3 kmh S 8.6 mph13.8 kmh 29.79 in1008.8 mb 0.00 in0.0 mm 0.00 in0.0 mm 0.05 in1.3 mm
07:25 AM 48.7°F9.3°C 45.0°F7.2°C 87% 6.7 mph S10.8 kmh S 11.6 mph18.7 kmh 29.79 in1008.8 mb 0.00 in0.0 mm 0.00 in0.0 mm 0.05 in1.3 mm
07:30 AM 48.7°F9.3°C 45.0°F7.2°C 87% 6.3 mph SSW10.1 kmh SSW 11.6 mph18.7 kmh 29.79 in1008.8 mb 0.00 in0.0 mm 0.00 in0.0 mm 0.05 in1.3 mm
07:35 AM 48.8°F9.3°C 45.1°F7.3°C 87% 5.6 mph SSW9.0 kmh SSW 10.7 mph17.2 kmh 29.79 in1008.8 mb 0.00 in0.0 mm 0.00 in0.0 mm 0.05 in1.3 mm
07:40 AM 48.8°F9.3°C 45.1°F7.3°C 87% 5.8 mph S9.3 kmh S 9.5 mph15.3 kmh 29.79 in1008.8 mb 0.00 in0.0 mm 0.00 in0.0 mm 0.05 in1.3 mm
07:45 AM 49.0°F9.4°C 45.3°F7.4°C 87% 7.7 mph S12.4 kmh S 10.7 mph17.2 kmh 29.79 in1008.8 mb 0.00 in0.0 mm 0.00 in0.0 mm 0.05 in1.3 mm
07:50 AM 49.4°F9.7°C 45.7°F7.6°C 87% 8.1 mph SSW13.0 kmh SSW 10.7 mph17.2 kmh 29.79 in1008.8 mb 0.00 in0.0 mm 0.00 in0.0 mm 0.05 in1.3 mm
07:55 AM 49.5°F9.7°C 46.1°F7.8°C 88% 7.2 mph SSW11.6 kmh SSW 13.7 mph22.0 kmh 29.79 in1008.8 mb 0.00 in0.0 mm 0.00 in0.0 mm 0.05 in1.3 mm
08:00 AM 49.5°F9.7°C 46.1°F7.8°C 88% 6.8 mph SSW10.9 kmh SSW 13.7 mph22.0 kmh 29.79 in1008.8 mb 0.00 in0.0 mm 0.00 in0.0 mm 0.05 in1.3 mm
08:05 AM 49.5°F9.7°C 46.1°F7.8°C 88% 6.6 mph SSW10.6 kmh SSW 10.1 mph16.3 kmh 29.79 in1008.8 mb 0.00 in0.0 mm 0.00 in0.0 mm 0.05 in1.3 mm
08:10 AM 49.5°F9.7°C 46.1°F7.8°C 88% 6.3 mph SSW10.1 kmh SSW 10.1 mph16.3 kmh 29.79 in1008.8 mb 0.00 in0.0 mm 0.00 in0.0 mm 0.05 in1.3 mm
08:15 AM 49.5°F9.7°C 46.1°F7.8°C 88% 6.3 mph S10.1 kmh S 8.6 mph13.8 kmh 29.79 in1008.8 mb 0.00 in0.0 mm 0.00 in0.0 mm 0.05 in1.3 mm
08:20 AM 49.5°F9.7°C 46.1°F7.8°C 88% 6.2 mph S10.0 kmh S 8.6 mph13.8 kmh 29.79 in1008.8 mb 0.00 in0.0 mm 0.00 in0.0 mm 0.05 in1.3 mm
08:25 AM 49.5°F9.7°C 46.1°F7.8°C 88% 5.2 mph S8.4 kmh S 7.4 mph11.9 kmh 29.79 in1008.8 mb 0.00 in0.0 mm 0.00 in0.0 mm 0.05 in1.3 mm
08:30 AM 49.5°F9.7°C 46.1°F7.8°C 88% 5.8 mph SSW9.3 kmh SSW 9.8 mph15.8 kmh 29.79 in1008.8 mb 0.00 in0.0 mm 0.00 in0.0 mm 0.05 in1.3 mm
08:35 AM 49.5°F9.7°C 46.1°F7.8°C 88% 8.1 mph SSW13.0 kmh SSW 11.6 mph18.7 kmh 29.79 in1008.8 mb 0.00 in0.0 mm 0.00 in0.0 mm 0.05 in1.3 mm
08:40 AM 49.5°F9.7°C 46.1°F7.8°C 88% 8.7 mph S14.0 kmh S 11.6 mph18.7 kmh 29.79 in1008.8 mb 0.00 in0.0 mm 0.00 in0.0 mm 0.05 in1.3 mm
08:45 AM 49.4°F9.7°C 45.7°F7.6°C 87% 7.9 mph S12.7 kmh S 10.1 mph16.3 kmh 29.82 in1009.8 mb 0.04 in1.0 mm 0.48 in12.2 mm 0.09 in2.3 mm
08:50 AM 49.2°F9.6°C 45.8°F7.7°C 88% 7.8 mph S12.6 kmh S 10.4 mph16.7 kmh 29.82 in1009.8 mb 0.04 in1.0 mm 0.00 in0.0 mm 0.09 in2.3 mm
08:55 AM 49.0°F9.4°C 45.6°F7.6°C 88% 7.9 mph S12.7 kmh S 10.4 mph16.7 kmh 29.82 in1009.8 mb 0.04 in1.0 mm 0.00 in0.0 mm 0.09 in2.3 mm
09:00 AM 49.0°F9.4°C 45.6°F7.6°C 88% 5.9 mph SSW9.5 kmh SSW 9.8 mph15.8 kmh 29.82 in1009.8 mb 0.04 in1.0 mm 0.00 in0.0 mm 0.09 in2.3 mm
09:05 AM 49.0°F9.4°C 45.6°F7.6°C 88% 5.5 mph SW8.9 kmh SW 8.0 mph12.9 kmh 29.82 in1009.8 mb 0.04 in1.0 mm 0.00 in0.0 mm 0.09 in2.3 mm
09:10 AM 49.0°F9.4°C 45.6°F7.6°C 88% 6.8 mph SW10.9 kmh SW 10.1 mph16.3 kmh 29.82 in1009.8 mb 0.04 in1.0 mm 0.00 in0.0 mm 0.09 in2.3 mm
09:15 AM 48.8°F9.3°C 45.4°F7.4°C 88% 7.5 mph S12.1 kmh S 10.1 mph16.3 kmh 29.82 in1009.8 mb 0.08 in2.0 mm 0.48 in12.2 mm 0.13 in3.3 mm
09:20 AM 48.8°F9.3°C 45.4°F7.4°C 88% 7.1 mph S11.4 kmh S 9.8 mph15.8 kmh 29.82 in1009.8 mb 0.08 in2.0 mm 0.00 in0.0 mm 0.13 in3.3 mm
09:25 AM 48.8°F9.3°C 45.4°F7.4°C 88% 6.0 mph SSW9.7 kmh SSW 8.6 mph13.8 kmh 29.82 in1009.8 mb 0.08 in2.0 mm 0.00 in0.0 mm 0.13 in3.3 mm
09:30 AM 48.8°F9.3°C 45.7°F7.6°C 89% 6.0 mph SW9.7 kmh SW 9.5 mph15.3 kmh 29.82 in1009.8 mb 0.08 in2.0 mm 0.00 in0.0 mm 0.13 in3.3 mm
09:35 AM 48.8°F9.3°C 45.7°F7.6°C 89% 5.9 mph SW9.5 kmh SW 9.5 mph15.3 kmh 29.82 in1009.8 mb 0.08 in2.0 mm 0.00 in0.0 mm 0.13 in3.3 mm
09:40 AM 48.8°F9.3°C 45.7°F7.6°C 89% 6.2 mph SW10.0 kmh SW 10.1 mph16.3 kmh 29.82 in1009.8 mb 0.08 in2.0 mm 0.00 in0.0 mm 0.13 in3.3 mm
09:45 AM 49.0°F9.4°C 45.9°F7.7°C 89% 6.9 mph SSW11.1 kmh SSW 10.1 mph16.3 kmh 29.82 in1009.8 mb 0.04 in1.0 mm 0.00 in0.0 mm 0.13 in3.3 mm
09:50 AM 49.0°F9.4°C 45.9°F7.7°C 89% 5.7 mph S9.2 kmh S 7.7 mph12.4 kmh 29.82 in1009.8 mb 0.04 in1.0 mm 0.00 in0.0 mm 0.13 in3.3 mm
09:55 AM 49.2°F9.6°C 46.1°F7.8°C 89% 5.8 mph S9.3 kmh S 8.6 mph13.8 kmh 29.82 in1009.8 mb 0.04 in1.0 mm 0.00 in0.0 mm 0.13 in3.3 mm
10:00 AM 49.2°F9.6°C 46.1°F7.8°C 89% 6.2 mph S10.0 kmh S 8.6 mph13.8 kmh 29.82 in1009.8 mb 0.04 in1.0 mm 0.00 in0.0 mm 0.13 in3.3 mm
10:05 AM 49.4°F9.7°C 46.6°F8.1°C 90% 5.6 mph S9.0 kmh S 8.3 mph13.4 kmh 29.82 in1009.8 mb 0.04 in1.0 mm 0.00 in0.0 mm 0.13 in3.3 mm
10:10 AM 49.5°F9.7°C 46.7°F8.2°C 90% 5.1 mph SSW8.2 kmh SSW 8.9 mph14.3 kmh 29.82 in1009.8 mb 0.04 in1.0 mm 0.00 in0.0 mm 0.13 in3.3 mm
10:15 AM 49.9°F9.9°C 47.1°F8.4°C 90% 5.4 mph S8.7 kmh S 8.9 mph14.3 kmh 29.82 in1009.8 mb 0.00 in0.0 mm 0.00 in0.0 mm 0.13 in3.3 mm
10:20 AM 50.5°F10.3°C 47.6°F8.7°C 90% 5.9 mph SSW9.5 kmh SSW 8.9 mph14.3 kmh 29.82 in1009.8 mb 0.00 in0.0 mm 0.00 in0.0 mm 0.13 in3.3 mm
10:25 AM 50.8°F10.4°C 48.0°F8.9°C 90% 8.1 mph S13.0 kmh S 16.4 mph26.4 kmh 29.82 in1009.8 mb 0.00 in0.0 mm 0.00 in0.0 mm 0.13 in3.3 mm
10:30 AM 51.5°F10.8°C 48.7°F9.3°C 90% 10.5 mph S16.9 kmh S 16.4 mph26.4 kmh 29.79 in1008.8 mb 0.00 in0.0 mm 0.00 in0.0 mm 0.13 in3.3 mm
10:35 AM 51.9°F11.1°C 49.0°F9.4°C 90% 10.9 mph SSW17.5 kmh SSW 19.3 mph31.1 kmh 29.79 in1008.8 mb 0.00 in0.0 mm 0.00 in0.0 mm 0.13 in3.3 mm
10:40 AM 52.6°F11.4°C 49.2°F9.6°C 88% 12.5 mph SSW20.1 kmh SSW 19.3 mph31.1 kmh 29.79 in1008.8 mb 0.00 in0.0 mm 0.00 in0.0 mm 0.13 in3.3 mm
10:45 AM 53.0°F11.7°C 49.2°F9.6°C 87% 14.9 mph SSW24.0 kmh SSW 20.5 mph33.0 kmh 29.79 in1008.8 mb 0.00 in0.0 mm 0.00 in0.0 mm 0.13 in3.3 mm
10:50 AM 53.2°F11.8°C 49.4°F9.7°C 87% 14.5 mph SSW23.3 kmh SSW 20.5 mph33.0 kmh 29.79 in1008.8 mb 0.00 in0.0 mm 0.00 in0.0 mm 0.13 in3.3 mm
10:55 AM 53.3°F11.8°C 49.2°F9.6°C 86% 12.8 mph SW20.6 kmh SW 18.1 mph29.1 kmh 29.79 in1008.8 mb 0.00 in0.0 mm 0.00 in0.0 mm 0.13 in3.3 mm
11:00 AM 53.5°F11.9°C 49.4°F9.7°C 86% 12.9 mph SW20.8 kmh SW 18.1 mph29.1 kmh 29.79 in1008.8 mb 0.00 in0.0 mm 0.00 in0.0 mm 0.13 in3.3 mm
11:05 AM 53.7°F12.1°C 49.3°F9.6°C 85% 13.1 mph SSW21.1 kmh SSW 17.9 mph28.8 kmh 29.79 in1008.8 mb 0.00 in0.0 mm 0.00 in0.0 mm 0.13 in3.3 mm
11:10 AM 53.7°F12.1°C 49.3°F9.6°C 85% 11.5 mph SSW18.5 kmh SSW 17.9 mph28.8 kmh 29.79 in1008.8 mb 0.00 in0.0 mm 0.00 in0.0 mm 0.13 in3.3 mm
11:15 AM 54.0°F12.2°C 49.6°F9.8°C 85% 10.6 mph SSW17.1 kmh SSW 17.9 mph28.8 kmh 29.82 in1009.8 mb 0.00 in0.0 mm 0.00 in0.0 mm 0.13 in3.3 mm
11:20 AM 54.0°F12.2°C 49.6°F9.8°C 85% 12.7 mph SW20.4 kmh SW 17.3 mph27.8 kmh 29.82 in1009.8 mb 0.00 in0.0 mm 0.00 in0.0 mm 0.13 in3.3 mm
11:25 AM 54.4°F12.4°C 49.7°F9.8°C 84% 12.6 mph SW20.3 kmh SW 17.3 mph27.8 kmh 29.82 in1009.8 mb 0.00 in0.0 mm 0.00 in0.0 mm 0.13 in3.3 mm
11:30 AM 54.4°F12.4°C 49.4°F9.7°C 83% 11.6 mph SSW18.7 kmh SSW 16.1 mph25.9 kmh 29.79 in1008.8 mb 0.00 in0.0 mm 0.00 in0.0 mm 0.13 in3.3 mm
11:35 AM 54.4°F12.4°C 49.4°F9.7°C 83% 13.1 mph S21.1 kmh S 17.6 mph28.3 kmh 29.79 in1008.8 mb 0.00 in0.0 mm 0.00 in0.0 mm 0.13 in3.3 mm
11:40 AM 54.4°F12.4°C 49.4°F9.7°C 83% 12.9 mph S20.8 kmh S 17.6 mph28.3 kmh 29.79 in1008.8 mb 0.00 in0.0 mm 0.00 in0.0 mm 0.13 in3.3 mm
11:45 AM 54.4°F12.4°C 49.0°F9.4°C 82% 14.3 mph S23.0 kmh S 23.5 mph37.8 kmh 29.79 in1008.8 mb 0.00 in0.0 mm 0.00 in0.0 mm 0.13 in3.3 mm
11:50 AM 54.4°F12.4°C 49.0°F9.4°C 82% 14.6 mph SSW23.5 kmh SSW 23.5 mph37.8 kmh 29.79 in1008.8 mb 0.00 in0.0 mm 0.00 in0.0 mm 0.13 in3.3 mm
11:55 AM 54.4°F12.4°C 49.0°F9.4°C 82% 13.0 mph SSW20.9 kmh SSW 16.7 mph26.9 kmh 29.79 in1008.8 mb 0.00 in0.0 mm 0.00 in0.0 mm 0.13 in3.3 mm
12:00 PM 54.6°F12.6°C 48.9°F9.4°C 81% 13.0 mph S20.9 kmh S 16.7 mph26.9 kmh 29.79 in1008.8 mb 0.00 in0.0 mm 0.00 in0.0 mm 0.13 in3.3 mm
12:05 PM 54.6°F12.6°C 48.9°F9.4°C 81% 13.1 mph S21.1 kmh S 17.0 mph27.4 kmh 29.79 in1008.8 mb 0.00 in0.0 mm 0.00 in0.0 mm 0.13 in3.3 mm
12:10 PM 54.6°F12.6°C 48.5°F9.2°C 80% 13.9 mph S22.4 kmh S 24.7 mph39.8 kmh 29.79 in1008.8 mb 0.00 in0.0 mm 0.00 in0.0 mm 0.13 in3.3 mm
12:15 PM 54.8°F12.7°C 48.7°F9.3°C 80% 13.4 mph SSW21.6 kmh SSW 24.7 mph39.8 kmh 29.79 in1008.8 mb 0.00 in0.0 mm 0.00 in0.0 mm 0.13 in3.3 mm
12:20 PM 54.8°F12.7°C 48.4°F9.1°C 79% 12.0 mph SSW19.3 kmh SSW 17.3 mph27.8 kmh 29.79 in1008.8 mb 0.00 in0.0 mm 0.00 in0.0 mm 0.13 in3.3 mm
12:25 PM 54.8°F12.7°C 48.4°F9.1°C 79% 15.5 mph SSW24.9 kmh SSW 25.9 mph41.7 kmh 29.79 in1008.8 mb 0.00 in0.0 mm 0.00 in0.0 mm 0.13 in3.3 mm
12:30 PM 55.0°F12.8°C 48.6°F9.2°C 79% 14.3 mph SW23.0 kmh SW 25.9 mph41.7 kmh 29.79 in1008.8 mb 0.00 in0.0 mm 0.00 in0.0 mm 0.13 in3.3 mm
12:35 PM 55.1°F12.8°C 48.4°F9.1°C 78% 10.6 mph SW17.1 kmh SW 18.1 mph29.1 kmh 29.79 in1008.8 mb 0.00 in0.0 mm 0.00 in0.0 mm 0.13 in3.3 mm
12:40 PM 55.1°F12.8°C 48.4°F9.1°C 78% 12.5 mph SSW20.1 kmh SSW 23.2 mph37.3 kmh 29.79 in1008.8 mb 0.00 in0.0 mm 0.00 in0.0 mm 0.13 in3.3 mm
12:45 PM 55.1°F12.8°C 48.0°F8.9°C 77% 14.0 mph SSW22.5 kmh SSW 23.2 mph37.3 kmh 29.79 in1008.8 mb 0.00 in0.0 mm 0.00 in0.0 mm 0.13 in3.3 mm
12:50 PM 55.1°F12.8°C 48.0°F8.9°C 77% 11.6 mph SSW18.7 kmh SSW 19.0 mph30.6 kmh 29.79 in1008.8 mb 0.00 in0.0 mm 0.00 in0.0 mm 0.13 in3.3 mm
12:55 PM 55.1°F12.8°C 47.7°F8.7°C 76% 10.6 mph SSW17.1 kmh SSW 17.6 mph28.3 kmh 29.79 in1008.8 mb 0.00 in0.0 mm 0.00 in0.0 mm 0.13 in3.3 mm
01:00 PM 55.1°F12.8°C 47.7°F8.7°C 76% 12.5 mph SSW20.1 kmh SSW 17.6 mph28.3 kmh 29.79 in1008.8 mb 0.00 in0.0 mm 0.00 in0.0 mm 0.13 in3.3 mm
01:05 PM 55.1°F12.8°C 47.7°F8.7°C 76% 12.0 mph SSW19.3 kmh SSW 16.1 mph25.9 kmh 29.79 in1008.8 mb 0.00 in0.0 mm 0.00 in0.0 mm 0.13 in3.3 mm
01:10 PM 55.0°F12.8°C 47.5°F8.6°C 76% 14.2 mph S22.9 kmh S 22.9 mph36.9 kmh 29.79 in1008.8 mb 0.00 in0.0 mm 0.00 in0.0 mm 0.13 in3.3 mm
01:15 PM 55.0°F12.8°C 47.5°F8.6°C 76% 14.0 mph S22.5 kmh S 22.9 mph36.9 kmh 29.79 in1008.8 mb 0.00 in0.0 mm 0.00 in0.0 mm 0.13 in3.3 mm
01:20 PM 54.8°F12.7°C 47.0°F8.3°C 75% 11.8 mph S19.0 kmh S 19.6 mph31.5 kmh 29.79 in1008.8 mb 0.00 in0.0 mm 0.00 in0.0 mm 0.13 in3.3 mm
01:25 PM 54.8°F12.7°C 47.3°F8.5°C 76% 11.8 mph S19.0 kmh S 19.6 mph31.5 kmh 29.79 in1008.8 mb 0.00 in0.0 mm 0.00 in0.0 mm 0.13 in3.3 mm
01:30 PM 54.8°F12.7°C 47.3°F8.5°C 76% 9.7 mph S15.6 kmh S 13.4 mph21.6 kmh 29.79 in1008.8 mb 0.00 in0.0 mm 0.00 in0.0 mm 0.13 in3.3 mm
01:35 PM 54.8°F12.7°C 47.3°F8.5°C 76% 9.0 mph S14.5 kmh S 17.6 mph28.3 kmh 29.79 in1008.8 mb 0.00 in0.0 mm 0.00 in0.0 mm 0.13 in3.3 mm
01:40 PM 54.8°F12.7°C 47.0°F8.3°C 75% 11.3 mph S18.2 kmh S 17.6 mph28.3 kmh 29.79 in1008.8 mb 0.00 in0.0 mm 0.00 in0.0 mm 0.13 in3.3 mm
01:45 PM 54.8°F12.7°C 47.0°F8.3°C 75% 12.0 mph SSW19.3 kmh SSW 16.1 mph25.9 kmh 29.79 in1008.8 mb 0.00 in0.0 mm 0.00 in0.0 mm 0.13 in3.3 mm
01:50 PM 54.8°F12.7°C 47.0°F8.3°C 75% 13.0 mph S20.9 kmh S 20.5 mph33.0 kmh 29.79 in1008.8 mb 0.00 in0.0 mm 0.00 in0.0 mm 0.13 in3.3 mm
01:55 PM 54.8°F12.7°C 47.0°F8.3°C 75% 13.0 mph S20.9 kmh S 20.5 mph33.0 kmh 29.79 in1008.8 mb 0.00 in0.0 mm 0.00 in0.0 mm 0.13 in3.3 mm
02:00 PM 54.8°F12.7°C 47.0°F8.3°C 75% 11.9 mph S19.2 kmh S 16.4 mph26.4 kmh 29.79 in1008.8 mb 0.00 in0.0 mm 0.00 in0.0 mm 0.13 in3.3 mm
02:05 PM 54.8°F12.7°C 47.0°F8.3°C 75% 10.6 mph S17.1 kmh S 14.6 mph23.5 kmh 29.79 in1008.8 mb 0.00 in0.0 mm 0.00 in0.0 mm 0.13 in3.3 mm
02:10 PM 54.8°F12.7°C 47.0°F8.3°C 75% 10.1 mph SSW16.3 kmh SSW 13.7 mph22.0 kmh 29.79 in1008.8 mb 0.00 in0.0 mm 0.00 in0.0 mm 0.13 in3.3 mm
02:15 PM 54.8°F12.7°C 47.0°F8.3°C 75% 11.6 mph S18.7 kmh S 14.6 mph23.5 kmh 29.79 in1008.8 mb 0.00 in0.0 mm 0.00 in0.0 mm 0.13 in3.3 mm
02:20 PM 54.6°F12.6°C 46.8°F8.2°C 75% 13.5 mph S21.7 kmh S 19.3 mph31.1 kmh 29.79 in1008.8 mb 0.00 in0.0 mm 0.00 in0.0 mm 0.13 in3.3 mm
02:25 PM 54.6°F12.6°C 46.8°F8.2°C 75% 14.1 mph S22.7 kmh S 19.3 mph31.1 kmh 29.79 in1008.8 mb 0.00 in0.0 mm 0.00 in0.0 mm 0.13 in3.3 mm
02:30 PM 54.6°F12.6°C 46.5°F8.1°C 74% 14.3 mph S23.0 kmh S 18.7 mph30.1 kmh 29.79 in1008.8 mb 0.00 in0.0 mm 0.00 in0.0 mm 0.13 in3.3 mm
02:35 PM 54.4°F12.4°C 46.3°F7.9°C 74% 14.3 mph SSW23.0 kmh SSW 18.7 mph30.1 kmh 29.79 in1008.8 mb 0.00 in0.0 mm 0.00 in0.0 mm 0.13 in3.3 mm
02:40 PM 54.4°F12.4°C 46.3°F7.9°C 74% 13.0 mph S20.9 kmh S 16.4 mph26.4 kmh 29.79 in1008.8 mb 0.00 in0.0 mm 0.00 in0.0 mm 0.13 in3.3 mm
02:45 PM 54.4°F12.4°C 46.3°F7.9°C 74% 14.1 mph S22.7 kmh S 23.2 mph37.3 kmh 29.79 in1008.8 mb 0.00 in0.0 mm 0.00 in0.0 mm 0.13 in3.3 mm
02:50 PM 54.4°F12.4°C 46.3°F7.9°C 74% 14.1 mph S22.7 kmh S 23.2 mph37.3 kmh 29.79 in1008.8 mb 0.00 in0.0 mm 0.00 in0.0 mm 0.13 in3.3 mm
02:55 PM 54.2°F12.3°C 45.8°F7.7°C 73% 13.7 mph SSW22.0 kmh SSW 19.3 mph31.1 kmh 29.79 in1008.8 mb 0.00 in0.0 mm 0.00 in0.0 mm 0.13 in3.3 mm
03:00 PM 54.0°F12.2°C 45.9°F7.7°C 74% 14.1 mph S22.7 kmh S 19.3 mph31.1 kmh 29.76 in1007.8 mb 0.00 in0.0 mm 0.00 in0.0 mm 0.13 in3.3 mm
03:05 PM 53.9°F12.2°C 45.8°F7.7°C 74% 11.4 mph S18.3 kmh S 16.1 mph25.9 kmh 29.76 in1007.8 mb 0.00 in0.0 mm 0.00 in0.0 mm 0.13 in3.3 mm
03:10 PM 53.5°F11.9°C 45.4°F7.4°C 74% 9.5 mph SSW15.3 kmh SSW 11.6 mph18.7 kmh 29.76 in1007.8 mb 0.00 in0.0 mm 0.00 in0.0 mm 0.13 in3.3 mm
03:15 PM 53.5°F11.9°C 45.4°F7.4°C 74% 11.8 mph SSW19.0 kmh SSW 19.3 mph31.1 kmh 29.76 in1007.8 mb 0.00 in0.0 mm 0.00 in0.0 mm 0.13 in3.3 mm
03:20 PM 53.3°F11.8°C 45.3°F7.4°C 74% 11.0 mph SSW17.7 kmh SSW 19.3 mph31.1 kmh 29.76 in1007.8 mb 0.00 in0.0 mm 0.00 in0.0 mm 0.13 in3.3 mm
03:25 PM 53.2°F11.8°C 45.1°F7.3°C 74% 10.5 mph S16.9 kmh S 17.6 mph28.3 kmh 29.76 in1007.8 mb 0.00 in0.0 mm 0.00 in0.0 mm 0.13 in3.3 mm
03:30 PM 53.0°F11.7°C 44.9°F7.2°C 74% 12.0 mph S19.3 kmh S 19.6 mph31.5 kmh 29.79 in1008.8 mb 0.00 in0.0 mm 0.00 in0.0 mm 0.13 in3.3 mm
03:35 PM 52.8°F11.6°C 44.7°F7.1°C 74% 12.0 mph S19.3 kmh S 19.6 mph31.5 kmh 29.79 in1008.8 mb 0.00 in0.0 mm 0.00 in0.0 mm 0.13 in3.3 mm
03:40 PM 52.8°F11.6°C 44.7°F7.1°C 74% 13.1 mph S21.1 kmh S 17.3 mph27.8 kmh 29.79 in1008.8 mb 0.00 in0.0 mm 0.00 in0.0 mm 0.13 in3.3 mm
03:45 PM 52.6°F11.4°C 44.2°F6.8°C 73% 10.9 mph S17.5 kmh S 17.3 mph27.8 kmh 29.76 in1007.8 mb 0.00 in0.0 mm 0.00 in0.0 mm 0.13 in3.3 mm
03:50 PM 52.4°F11.3°C 44.0°F6.7°C 73% 8.1 mph S13.0 kmh S 19.6 mph31.5 kmh 29.76 in1007.8 mb 0.00 in0.0 mm 0.00 in0.0 mm 0.13 in3.3 mm
03:55 PM 52.3°F11.3°C 44.2°F6.8°C 74% 9.2 mph S14.8 kmh S 19.6 mph31.5 kmh 29.76 in1007.8 mb 0.00 in0.0 mm 0.00 in0.0 mm 0.13 in3.3 mm
04:00 PM 52.1°F11.2°C 44.0°F6.7°C 74% 8.4 mph SSW13.5 kmh SSW 16.4 mph26.4 kmh 29.76 in1007.8 mb 0.00 in0.0 mm 0.00 in0.0 mm 0.13 in3.3 mm
04:05 PM 51.9°F11.1°C 43.9°F6.6°C 74% 7.1 mph SSW11.4 kmh SSW 10.4 mph16.7 kmh 29.76 in1007.8 mb 0.00 in0.0 mm 0.00 in0.0 mm 0.13 in3.3 mm
04:10 PM 51.9°F11.1°C 43.9°F6.6°C 74% 8.6 mph SSW13.8 kmh SSW 13.1 mph21.1 kmh 29.76 in1007.8 mb 0.00 in0.0 mm 0.00 in0.0 mm 0.13 in3.3 mm
04:15 PM 51.7°F10.9°C 43.7°F6.5°C 74% 8.8 mph S14.2 kmh S 14.0 mph22.5 kmh 29.76 in1007.8 mb 0.00 in0.0 mm 0.00 in0.0 mm 0.13 in3.3 mm
04:20 PM 51.5°F10.8°C 43.5°F6.4°C 74% 8.6 mph S13.8 kmh S 14.3 mph23.0 kmh 29.76 in1007.8 mb 0.00 in0.0 mm 0.00 in0.0 mm 0.13 in3.3 mm
04:25 PM 51.3°F10.7°C 43.7°F6.5°C 75% 8.7 mph SSW14.0 kmh SSW 14.3 mph23.0 kmh 29.76 in1007.8 mb 0.00 in0.0 mm 0.00 in0.0 mm 0.13 in3.3 mm
04:30 PM 51.3°F10.7°C 43.7°F6.5°C 75% 8.2 mph SSW13.2 kmh SSW 11.6 mph18.7 kmh 29.76 in1007.8 mb 0.00 in0.0 mm 0.00 in0.0 mm 0.13 in3.3 mm
04:35 PM 51.2°F10.7°C 43.5°F6.4°C 75% 7.0 mph S11.3 kmh S 11.6 mph18.7 kmh 29.76 in1007.8 mb 0.00 in0.0 mm 0.00 in0.0 mm 0.13 in3.3 mm
04:40 PM 51.0°F10.6°C 43.3°F6.3°C 75% 6.3 mph S10.1 kmh S 10.1 mph16.3 kmh 29.76 in1007.8 mb 0.00 in0.0 mm 0.00 in0.0 mm 0.13 in3.3 mm
04:45 PM 50.8°F10.4°C 43.2°F6.2°C 75% 6.7 mph SSW10.8 kmh SSW 10.4 mph16.7 kmh 29.76 in1007.8 mb 0.00 in0.0 mm 0.00 in0.0 mm 0.13 in3.3 mm
04:50 PM 50.8°F10.4°C 43.2°F6.2°C 75% 7.3 mph SSW11.7 kmh SSW 13.4 mph21.6 kmh 29.76 in1007.8 mb 0.00 in0.0 mm 0.00 in0.0 mm 0.13 in3.3 mm
04:55 PM 50.6°F10.3°C 43.3°F6.3°C 76% 8.3 mph S13.4 kmh S 13.4 mph21.6 kmh 29.76 in1007.8 mb 0.00 in0.0 mm 0.00 in0.0 mm 0.13 in3.3 mm
05:00 PM 50.6°F10.3°C 43.3°F6.3°C 76% 8.7 mph S14.0 kmh S 13.4 mph21.6 kmh 29.76 in1007.8 mb 0.00 in0.0 mm 0.00 in0.0 mm 0.13 in3.3 mm
05:05 PM 50.5°F10.3°C 43.2°F6.2°C 76% 8.3 mph S13.4 kmh S 13.4 mph21.6 kmh 29.76 in1007.8 mb 0.00 in0.0 mm 0.00 in0.0 mm 0.13 in3.3 mm
05:10 PM 50.5°F10.3°C 43.5°F6.4°C 77% 7.2 mph S11.6 kmh S 13.7 mph22.0 kmh 29.76 in1007.8 mb 0.00 in0.0 mm 0.00 in0.0 mm 0.13 in3.3 mm
05:15 PM 50.5°F10.3°C 43.5°F6.4°C 77% 8.1 mph S13.0 kmh S 13.7 mph22.0 kmh 29.76 in1007.8 mb 0.00 in0.0 mm 0.00 in0.0 mm 0.13 in3.3 mm
05:20 PM 50.3°F10.2°C 43.3°F6.3°C 77% 8.6 mph S13.8 kmh S 14.3 mph23.0 kmh 29.76 in1007.8 mb 0.00 in0.0 mm 0.00 in0.0 mm 0.13 in3.3 mm
05:25 PM 50.3°F10.2°C 43.3°F6.3°C 77% 7.6 mph S12.2 kmh S 14.3 mph23.0 kmh 29.76 in1007.8 mb 0.00 in0.0 mm 0.00 in0.0 mm 0.13 in3.3 mm
05:30 PM 50.1°F10.1°C 43.2°F6.2°C 77% 7.1 mph S11.4 kmh S 11.6 mph18.7 kmh 29.76 in1007.8 mb 0.00 in0.0 mm 0.00 in0.0 mm 0.13 in3.3 mm
05:35 PM 50.1°F10.1°C 43.2°F6.2°C 77% 7.1 mph SSE11.4 kmh SSE 11.6 mph18.7 kmh 29.76 in1007.8 mb 0.00 in0.0 mm 0.00 in0.0 mm 0.13 in3.3 mm
05:40 PM 50.1°F10.1°C 43.2°F6.2°C 77% 6.4 mph S10.3 kmh S 11.6 mph18.7 kmh 29.76 in1007.8 mb 0.00 in0.0 mm 0.00 in0.0 mm 0.13 in3.3 mm
05:45 PM 49.7°F9.8°C 42.8°F6.0°C 77% 4.7 mph SE7.6 kmh SE 7.4 mph11.9 kmh 29.76 in1007.8 mb 0.00 in0.0 mm 0.00 in0.0 mm 0.13 in3.3 mm
05:50 PM 49.5°F9.7°C 42.3°F5.7°C 76% 5.6 mph SE9.0 kmh SE 10.4 mph16.7 kmh 29.76 in1007.8 mb 0.00 in0.0 mm 0.00 in0.0 mm 0.13 in3.3 mm
05:55 PM 49.5°F9.7°C 42.3°F5.7°C 76% 5.7 mph SSE9.2 kmh SSE 10.4 mph16.7 kmh 29.76 in1007.8 mb 0.00 in0.0 mm 0.00 in0.0 mm 0.13 in3.3 mm
06:00 PM 49.4°F9.7°C 42.1°F5.6°C 76% 6.2 mph S10.0 kmh S 10.4 mph16.7 kmh 29.76 in1007.8 mb 0.00 in0.0 mm 0.00 in0.0 mm 0.13 in3.3 mm
06:05 PM 49.4°F9.7°C 42.1°F5.6°C 76% 5.8 mph S9.3 kmh S 10.4 mph16.7 kmh 29.76 in1007.8 mb 0.00 in0.0 mm 0.00 in0.0 mm 0.13 in3.3 mm
06:10 PM 49.4°F9.7°C 42.1°F5.6°C 76% 5.2 mph SSE8.4 kmh SSE 10.7 mph17.2 kmh 29.76 in1007.8 mb 0.00 in0.0 mm 0.00 in0.0 mm 0.13 in3.3 mm
06:15 PM 49.4°F9.7°C 42.1°F5.6°C 76% 5.8 mph SSE9.3 kmh SSE 10.7 mph17.2 kmh 29.76 in1007.8 mb 0.00 in0.0 mm 0.00 in0.0 mm 0.13 in3.3 mm
06:20 PM 49.4°F9.7°C 42.1°F5.6°C 76% 5.9 mph S9.5 kmh S 10.7 mph17.2 kmh 29.76 in1007.8 mb 0.00 in0.0 mm 0.00 in0.0 mm 0.13 in3.3 mm
06:25 PM 49.4°F9.7°C 41.8°F5.4°C 75% 5.1 mph S8.2 kmh S 8.3 mph13.4 kmh 29.76 in1007.8 mb 0.00 in0.0 mm 0.00 in0.0 mm 0.13 in3.3 mm
06:30 PM 49.2°F9.6°C 41.6°F5.3°C 75% 5.4 mph SE8.7 kmh SE 10.4 mph16.7 kmh 29.76 in1007.8 mb 0.00 in0.0 mm 0.00 in0.0 mm 0.13 in3.3 mm
06:35 PM 49.4°F9.7°C 41.8°F5.4°C 75% 5.5 mph SE8.9 kmh SE 10.4 mph16.7 kmh 29.76 in1007.8 mb 0.00 in0.0 mm 0.00 in0.0 mm 0.13 in3.3 mm
06:40 PM 49.4°F9.7°C 41.8°F5.4°C 75% 5.6 mph SE9.0 kmh SE 9.8 mph15.8 kmh 29.76 in1007.8 mb 0.00 in0.0 mm 0.00 in0.0 mm 0.13 in3.3 mm
06:45 PM 49.4°F9.7°C 41.8°F5.4°C 75% 7.1 mph SE11.4 kmh SE 10.4 mph16.7 kmh 29.76 in1007.8 mb 0.00 in0.0 mm 0.00 in0.0 mm 0.13 in3.3 mm
06:50 PM 49.4°F9.7°C 41.8°F5.4°C 75% 6.3 mph SSE10.1 kmh SSE 10.4 mph16.7 kmh 29.76 in1007.8 mb 0.00 in0.0 mm 0.00 in0.0 mm 0.13 in3.3 mm
06:55 PM 49.4°F9.7°C 41.8°F5.4°C 75% 6.0 mph SE9.7 kmh SE 10.4 mph16.7 kmh 29.76 in1007.8 mb 0.00 in0.0 mm 0.00 in0.0 mm 0.13 in3.3 mm
07:00 PM 49.5°F9.7°C 42.0°F5.6°C 75% 7.0 mph SSE11.3 kmh SSE 10.4 mph16.7 kmh 29.76 in1007.8 mb 0.00 in0.0 mm 0.00 in0.0 mm 0.13 in3.3 mm
07:05 PM 49.5°F9.7°C 42.3°F5.7°C 76% 7.2 mph SSE11.6 kmh SSE 8.6 mph13.8 kmh 29.76 in1007.8 mb 0.00 in0.0 mm 0.00 in0.0 mm 0.13 in3.3 mm
07:10 PM 49.4°F9.7°C 42.1°F5.6°C 76% 7.0 mph SSE11.3 kmh SSE 14.6 mph23.5 kmh 29.76 in1007.8 mb 0.00 in0.0 mm 0.00 in0.0 mm 0.13 in3.3 mm
07:15 PM 49.4°F9.7°C 42.1°F5.6°C 76% 6.8 mph S10.9 kmh S 14.6 mph23.5 kmh 29.76 in1007.8 mb 0.00 in0.0 mm 0.00 in0.0 mm 0.13 in3.3 mm
07:20 PM 49.4°F9.7°C 42.1°F5.6°C 76% 6.1 mph S9.8 kmh S 10.4 mph16.7 kmh 29.76 in1007.8 mb 0.00 in0.0 mm 0.00 in0.0 mm 0.13 in3.3 mm
07:25 PM 49.4°F9.7°C 42.1°F5.6°C 76% 6.5 mph S10.5 kmh S 10.7 mph17.2 kmh 29.76 in1007.8 mb 0.00 in0.0 mm 0.00 in0.0 mm 0.13 in3.3 mm
07:30 PM 49.4°F9.7°C 42.1°F5.6°C 76% 8.0 mph S12.9 kmh S 10.7 mph17.2 kmh 29.76 in1007.8 mb 0.00 in0.0 mm 0.00 in0.0 mm 0.13 in3.3 mm
07:35 PM 49.5°F9.7°C 42.3°F5.7°C 76% 7.4 mph S11.9 kmh S 10.1 mph16.3 kmh 29.76 in1007.8 mb 0.00 in0.0 mm 0.00 in0.0 mm 0.13 in3.3 mm
07:40 PM 49.5°F9.7°C 42.3°F5.7°C 76% 6.2 mph S10.0 kmh S 9.8 mph15.8 kmh 29.76 in1007.8 mb 0.00 in0.0 mm 0.00 in0.0 mm 0.13 in3.3 mm
07:45 PM 49.5°F9.7°C 42.3°F5.7°C 76% 5.5 mph SSE8.9 kmh SSE 9.8 mph15.8 kmh 29.76 in1007.8 mb 0.00 in0.0 mm 0.00 in0.0 mm 0.13 in3.3 mm
07:50 PM 49.7°F9.8°C 42.5°F5.8°C 76% 6.1 mph SE9.8 kmh SE 10.7 mph17.2 kmh 29.76 in1007.8 mb 0.00 in0.0 mm 0.00 in0.0 mm 0.13 in3.3 mm
07:55 PM 49.7°F9.8°C 42.5°F5.8°C 76% 6.7 mph SE10.8 kmh SE 10.7 mph17.2 kmh 29.76 in1007.8 mb 0.00 in0.0 mm 0.00 in0.0 mm 0.13 in3.3 mm
08:00 PM 49.7°F9.8°C 42.5°F5.8°C 76% 5.3 mph SE8.5 kmh SE 10.1 mph16.3 kmh 29.76 in1007.8 mb 0.00 in0.0 mm 0.00 in0.0 mm 0.13 in3.3 mm
08:05 PM 49.7°F9.8°C 42.5°F5.8°C 76% 5.2 mph S8.4 kmh S 9.5 mph15.3 kmh 29.76 in1007.8 mb 0.00 in0.0 mm 0.00 in0.0 mm 0.13 in3.3 mm
08:10 PM 49.7°F9.8°C 42.5°F5.8°C 76% 6.5 mph SSE10.5 kmh SSE 13.4 mph21.6 kmh 29.76 in1007.8 mb 0.00 in0.0 mm 0.00 in0.0 mm 0.13 in3.3 mm
08:15 PM 49.7°F9.8°C 42.5°F5.8°C 76% 6.8 mph SE10.9 kmh SE 13.4 mph21.6 kmh 29.73 in1006.8 mb 0.00 in0.0 mm 0.00 in0.0 mm 0.13 in3.3 mm
08:20 PM 49.9°F9.9°C 42.6°F5.9°C 76% 6.3 mph SSE10.1 kmh SSE 8.6 mph13.8 kmh 29.73 in1006.8 mb 0.00 in0.0 mm 0.00 in0.0 mm 0.13 in3.3 mm
08:25 PM 49.9°F9.9°C 43.0°F6.1°C 77% 6.5 mph S10.5 kmh S 9.5 mph15.3 kmh 29.73 in1006.8 mb 0.00 in0.0 mm 0.00 in0.0 mm 0.13 in3.3 mm
08:30 PM 50.1°F10.1°C 43.2°F6.2°C 77% 7.3 mph SSE11.7 kmh SSE 9.5 mph15.3 kmh 29.76 in1007.8 mb 0.00 in0.0 mm 0.00 in0.0 mm 0.13 in3.3 mm
08:35 PM 50.1°F10.1°C 43.2°F6.2°C 77% 6.8 mph S10.9 kmh S 8.6 mph13.8 kmh 29.76 in1007.8 mb 0.00 in0.0 mm 0.00 in0.0 mm 0.13 in3.3 mm
08:40 PM 50.1°F10.1°C 43.2°F6.2°C 77% 6.6 mph S10.6 kmh S 10.1 mph16.3 kmh 29.76 in1007.8 mb 0.00 in0.0 mm 0.00 in0.0 mm 0.13 in3.3 mm
08:45 PM 49.9°F9.9°C 43.0°F6.1°C 77% 7.9 mph S12.7 kmh S 14.3 mph23.0 kmh 29.73 in1006.8 mb 0.00 in0.0 mm 0.00 in0.0 mm 0.13 in3.3 mm
08:50 PM 49.9°F9.9°C 43.0°F6.1°C 77% 8.0 mph S12.9 kmh S 14.3 mph23.0 kmh 29.73 in1006.8 mb 0.00 in0.0 mm 0.00 in0.0 mm 0.13 in3.3 mm
08:55 PM 49.9°F9.9°C 43.0°F6.1°C 77% 6.8 mph S10.9 kmh S 11.6 mph18.7 kmh 29.73 in1006.8 mb 0.00 in0.0 mm 0.00 in0.0 mm 0.13 in3.3 mm
09:00 PM 49.9°F9.9°C 43.0°F6.1°C 77% 6.3 mph S10.1 kmh S 11.6 mph18.7 kmh 29.76 in1007.8 mb 0.00 in0.0 mm 0.00 in0.0 mm 0.13 in3.3 mm
09:05 PM 49.9°F9.9°C 43.0°F6.1°C 77% 7.1 mph S11.4 kmh S 13.7 mph22.0 kmh 29.76 in1007.8 mb 0.00 in0.0 mm 0.00 in0.0 mm 0.13 in3.3 mm
09:10 PM 49.7°F9.8°C 42.8°F6.0°C 77% 7.4 mph S11.9 kmh S 13.7 mph22.0 kmh 29.76 in1007.8 mb 0.00 in0.0 mm 0.00 in0.0 mm 0.13 in3.3 mm
09:15 PM 49.7°F9.8°C 43.1°F6.2°C 78% 7.3 mph SE11.7 kmh SE 11.3 mph18.2 kmh 29.73 in1006.8 mb 0.00 in0.0 mm 0.00 in0.0 mm 0.13 in3.3 mm
09:20 PM 49.7°F9.8°C 43.1°F6.2°C 78% 7.1 mph SE11.4 kmh SE 11.3 mph18.2 kmh 29.73 in1006.8 mb 0.00 in0.0 mm 0.00 in0.0 mm 0.13 in3.3 mm
09:25 PM 49.9°F9.9°C 43.3°F6.3°C 78% 7.9 mph S12.7 kmh S 10.4 mph16.7 kmh 29.73 in1006.8 mb 0.00 in0.0 mm 0.00 in0.0 mm 0.13 in3.3 mm
09:30 PM 49.9°F9.9°C 43.3°F6.3°C 78% 8.0 mph S12.9 kmh S 10.4 mph16.7 kmh 29.73 in1006.8 mb 0.00 in0.0 mm 0.00 in0.0 mm 0.13 in3.3 mm
09:35 PM 49.9°F9.9°C 43.3°F6.3°C 78% 6.3 mph SSE10.1 kmh SSE 9.5 mph15.3 kmh 29.73 in1006.8 mb 0.00 in0.0 mm 0.00 in0.0 mm 0.13 in3.3 mm
09:40 PM 49.9°F9.9°C 43.3°F6.3°C 78% 8.4 mph S13.5 kmh S 13.4 mph21.6 kmh 29.73 in1006.8 mb 0.00 in0.0 mm 0.00 in0.0 mm 0.13 in3.3 mm
09:45 PM 50.1°F10.1°C 43.5°F6.4°C 78% 9.6 mph SSE15.4 kmh SSE 14.3 mph23.0 kmh 29.73 in1006.8 mb 0.00 in0.0 mm 0.00 in0.0 mm 0.13 in3.3 mm
09:50 PM 50.1°F10.1°C 43.5°F6.4°C 78% 9.3 mph SSE15.0 kmh SSE 14.3 mph23.0 kmh 29.73 in1006.8 mb 0.00 in0.0 mm 0.00 in0.0 mm 0.13 in3.3 mm
09:55 PM 50.1°F10.1°C 43.5°F6.4°C 78% 10.5 mph SSE16.9 kmh SSE 19.0 mph30.6 kmh 29.73 in1006.8 mb 0.00 in0.0 mm 0.00 in0.0 mm 0.13 in3.3 mm
10:00 PM 50.1°F10.1°C 43.5°F6.4°C 78% 9.1 mph SSE14.6 kmh SSE 19.0 mph30.6 kmh 29.73 in1006.8 mb 0.00 in0.0 mm 0.00 in0.0 mm 0.13 in3.3 mm
10:05 PM 49.9°F9.9°C 43.3°F6.3°C 78% 7.8 mph SSE12.6 kmh SSE 16.1 mph25.9 kmh 29.73 in1006.8 mb 0.00 in0.0 mm 0.00 in0.0 mm 0.13 in3.3 mm
10:10 PM 50.1°F10.1°C 43.5°F6.4°C 78% 8.0 mph SSE12.9 kmh SSE 14.0 mph22.5 kmh 29.73 in1006.8 mb 0.00 in0.0 mm 0.00 in0.0 mm 0.13 in3.3 mm
10:15 PM 49.9°F9.9°C 43.0°F6.1°C 77% 7.6 mph SSE12.2 kmh SSE 13.7 mph22.0 kmh 29.73 in1006.8 mb 0.00 in0.0 mm 0.00 in0.0 mm 0.13 in3.3 mm
10:20 PM 49.9°F9.9°C 43.0°F6.1°C 77% 8.8 mph SSE14.2 kmh SSE 13.1 mph21.1 kmh 29.73 in1006.8 mb 0.00 in0.0 mm 0.00 in0.0 mm 0.13 in3.3 mm
10:25 PM 49.9°F9.9°C 43.0°F6.1°C 77% 8.9 mph SSE14.3 kmh SSE 13.1 mph21.1 kmh 29.73 in1006.8 mb 0.00 in0.0 mm 0.00 in0.0 mm 0.13 in3.3 mm
10:30 PM 49.9°F9.9°C 43.0°F6.1°C 77% 7.9 mph SSE12.7 kmh SSE 10.7 mph17.2 kmh 29.73 in1006.8 mb 0.00 in0.0 mm 0.00 in0.0 mm 0.13 in3.3 mm
10:35 PM 49.9°F9.9°C 43.0°F6.1°C 77% 9.1 mph S14.6 kmh S 13.4 mph21.6 kmh 29.73 in1006.8 mb 0.00 in0.0 mm 0.00 in0.0 mm 0.13 in3.3 mm
10:40 PM 49.9°F9.9°C 43.0°F6.1°C 77% 9.1 mph S14.6 kmh S 13.4 mph21.6 kmh 29.73 in1006.8 mb 0.00 in0.0 mm 0.00 in0.0 mm 0.13 in3.3 mm
10:45 PM 49.9°F9.9°C 43.0°F6.1°C 77% 8.6 mph S13.8 kmh S 10.4 mph16.7 kmh 29.70 in1005.8 mb 0.00 in0.0 mm 0.00 in0.0 mm 0.13 in3.3 mm
10:50 PM 49.7°F9.8°C 42.8°F6.0°C 77% 7.4 mph SE11.9 kmh SE 11.3 mph18.2 kmh 29.70 in1005.8 mb 0.00 in0.0 mm 0.00 in0.0 mm 0.13 in3.3 mm
10:55 PM 49.7°F9.8°C 42.8°F6.0°C 77% 7.8 mph SE12.6 kmh SE 11.3 mph18.2 kmh 29.70 in1005.8 mb 0.00 in0.0 mm 0.00 in0.0 mm 0.13 in3.3 mm
11:00 PM 49.7°F9.8°C 42.8°F6.0°C 77% 6.9 mph SSE11.1 kmh SSE 10.7 mph17.2 kmh 29.70 in1005.8 mb 0.00 in0.0 mm 0.00 in0.0 mm 0.13 in3.3 mm
11:05 PM 49.7°F9.8°C 42.8°F6.0°C 77% 6.3 mph SSE10.1 kmh SSE 15.8 mph25.4 kmh 29.70 in1005.8 mb 0.00 in0.0 mm 0.00 in0.0 mm 0.13 in3.3 mm
11:10 PM 49.7°F9.8°C 42.8°F6.0°C 77% 6.3 mph S10.1 kmh S 15.8 mph25.4 kmh 29.70 in1005.8 mb 0.00 in0.0 mm 0.00 in0.0 mm 0.13 in3.3 mm
11:15 PM 49.7°F9.8°C 42.8°F6.0°C 77% 7.4 mph SSW11.9 kmh SSW 15.8 mph25.4 kmh 29.70 in1005.8 mb 0.00 in0.0 mm 0.00 in0.0 mm 0.13 in3.3 mm
11:20 PM 49.7°F9.8°C 42.8°F6.0°C 77% 7.3 mph S11.7 kmh S 13.7 mph22.0 kmh 29.70 in1005.8 mb 0.00 in0.0 mm 0.00 in0.0 mm 0.13 in3.3 mm
11:25 PM 49.7°F9.8°C 42.8°F6.0°C 77% 7.4 mph SSW11.9 kmh SSW 13.7 mph22.0 kmh 29.70 in1005.8 mb 0.00 in0.0 mm 0.00 in0.0 mm 0.13 in3.3 mm
11:30 PM 49.9°F9.9°C 43.0°F6.1°C 77% 8.1 mph SSW13.0 kmh SSW 14.9 mph24.0 kmh 29.70 in1005.8 mb 0.00 in0.0 mm 0.00 in0.0 mm 0.13 in3.3 mm
11:35 PM 50.1°F10.1°C 43.2°F6.2°C 77% 8.3 mph SSW13.4 kmh SSW 14.9 mph24.0 kmh 29.70 in1005.8 mb 0.00 in0.0 mm 0.00 in0.0 mm 0.13 in3.3 mm
11:40 PM 50.1°F10.1°C 43.2°F6.2°C 77% 7.7 mph S12.4 kmh S 13.1 mph21.1 kmh 29.70 in1005.8 mb 0.00 in0.0 mm 0.00 in0.0 mm 0.13 in3.3 mm
11:45 PM 50.1°F10.1°C 43.2°F6.2°C 77% 7.3 mph S11.7 kmh S 13.1 mph21.1 kmh 29.70 in1005.8 mb 0.00 in0.0 mm 0.00 in0.0 mm 0.13 in3.3 mm
11:50 PM 50.3°F10.2°C 43.3°F6.3°C 77% 8.4 mph S13.5 kmh S 11.6 mph18.7 kmh 29.70 in1005.8 mb 0.00 in0.0 mm 0.00 in0.0 mm 0.13 in3.3 mm
11:55 PM 50.5°F10.3°C 43.5°F6.4°C 77% 9.8 mph SW15.8 kmh SW 11.6 mph18.7 kmh 29.70 in1005.8 mb 0.00 in0.0 mm 0.00 in0.0 mm 0.13 in3.3 mm